Time;durP1;ratioP1;P1;durP2;ratioP2;P2;SDS_P1;SDS_P2;PMS_P1;PMS_P2;Temp;Humidity;BMP_temperature;BMP_pressure;BME280_temperature;BME280_humidity;BME280_pressure;Samples;Min_cycle;Max_cycle;Signal;HPM_P1;HPM_P2
2022/05/25 00:01:11;;;;;;;5.05;1.77;;;16.80;85.30;;;;;;5074211;28;20100;-59
2022/05/25 00:03:37;;;;;;;2.90;1.70;;;16.80;85.30;;;;;;5074055;28;20462;-59
2022/05/25 00:06:06;;;;;;;5.88;1.92;;;16.70;85.30;;;;;;5074330;28;20457;-63
2022/05/25 00:08:32;;;;;;;4.55;2.00;;;16.70;85.20;;;;;;5073953;28;20496;-59
2022/05/25 00:10:58;;;;;;;5.72;1.95;;;16.70;85.20;;;;;;5055906;28;20416;-59
2022/05/25 00:13:25;;;;;;;7.20;1.73;;;16.70;85.50;;;;;;5073680;28;20115;-58
2022/05/25 00:15:51;;;;;;;5.00;1.77;;;16.70;85.50;;;;;;5074129;28;20062;-59
2022/05/25 00:18:16;;;;;;;4.07;1.65;;;16.60;85.70;;;;;;5076086;28;20021;-59
2022/05/25 00:20:42;;;;;;;3.10;1.20;;;16.60;85.60;;;;;;5076842;28;20066;-60
2022/05/25 00:23:08;;;;;;;3.63;1.55;;;16.60;85.40;;;;;;5076388;28;20024;-59
2022/05/25 00:25:37;;;;;;;5.78;1.30;;;16.60;85.40;;;;;;5076276;28;20029;-60
2022/05/25 00:28:06;;;;;;;3.83;1.58;;;16.60;85.60;;;;;;5076461;28;20032;-59
2022/05/25 00:30:32;;;;;;;4.88;1.55;;;16.50;85.90;;;;;;5076090;28;20029;-60
2022/05/25 00:33:00;;;;;;;3.55;1.42;;;16.50;85.60;;;;;;5058370;28;20021;-60
2022/05/25 00:35:27;;;;;;;7.38;1.50;;;16.50;85.40;;;;;;5074475;28;20031;-68
2022/05/25 00:37:52;;;;;;;3.42;1.45;;;16.50;85.80;;;;;;5073689;28;20074;-64
2022/05/25 00:40:43;;;;;;;3.10;1.35;;;16.50;86.10;;;;;;5073743;28;20435;-70
2022/05/25 00:43:10;;;;;;;3.22;1.33;;;16.50;85.90;;;;;;5073294;28;20443;-66
2022/05/25 00:45:40;;;;;;;7.43;1.70;;;16.40;86.30;;;;;;5073470;28;20099;-63
2022/05/25 00:48:09;;;;;;;8.27;1.85;;;16.40;86.20;;;;;;5073396;28;20024;-65
2022/05/25 00:53:19;;;;;;;5.22;1.55;;;16.40;86.00;;;;;;5073520;28;20032;-71
2022/05/25 00:55:45;;;;;;;3.45;1.02;;;16.40;86.10;;;;;;5072880;28;20032;-71
2022/05/25 00:58:11;;;;;;;3.90;1.52;;;16.40;86.00;;;;;;5073144;28;20025;-71
2022/05/25 01:00:37;;;;;;;5.93;1.42;;;16.30;86.30;;;;;;5073359;28;20091;-70
2022/05/25 01:03:08;;;;;;;3.97;1.42;;;16.30;86.30;;;;;;5073221;28;20017;-70
2022/05/25 01:05:52;;;;;;;5.80;1.23;;;16.30;86.30;;;;;;5073291;28;20482;-63
2022/05/25 01:08:56;;;;;;;5.35;1.73;;;16.30;86.30;;;;;;5073311;28;20117;-72
2022/05/25 01:11:50;;;;;;;7.57;1.42;;;16.20;86.50;;;;;;5010897;28;20041;-61
2022/05/25 01:14:38;;;;;;;9.25;2.03;;;16.20;86.80;;;;;;5011243;28;20494;-68
2022/05/25 01:17:18;;;;;;;4.10;1.25;;;16.20;86.80;;;;;;5061300;28;20047;-70
2022/05/25 01:20:10;;;;;;;5.07;1.70;;;16.20;86.90;;;;;;5073141;28;20107;-67
2022/05/25 01:23:19;;;;;;;8.17;1.97;;;16.10;87.10;;;;;;5070107;28;20032;-67
2022/05/25 01:26:15;;;;;;;4.82;1.63;;;16.10;87.20;;;;;;5024271;28;20044;-60
2022/05/25 01:29:03;;;;;;;5.95;1.55;;;16.10;87.30;;;;;;5065942;28;20032;-66
2022/05/25 01:31:53;;;;;;;4.18;1.25;;;16.10;87.60;;;;;;5058712;28;20049;-59
2022/05/25 01:34:43;;;;;;;4.57;1.30;;;16.10;87.40;;;;;;5050741;28;20100;-60
2022/05/25 01:37:23;;;;;;;4.88;1.50;;;16.10;87.60;;;;;;5052573;28;20040;-62
2022/05/25 01:39:58;;;;;;;6.10;1.45;;;16.10;87.90;;;;;;5052647;28;20021;-60
2022/05/25 01:42:34;;;;;;;4.50;1.80;;;16.00;88.70;;;;;;5052357;28;20028;-60
2022/05/25 01:45:05;;;;;;;5.10;1.60;;;16.00;88.00;;;;;;5052563;28;20029;-59
2022/05/25 01:47:33;;;;;;;6.53;1.65;;;16.00;87.90;;;;;;5052663;28;20036;-60
2022/05/25 01:50:08;;;;;;;5.70;1.50;;;15.90;88.30;;;;;;5052766;28;20110;-59
2022/05/25 01:52:40;;;;;;;7.68;2.00;;;15.90;88.40;;;;;;5035605;28;20103;-61
2022/05/25 01:55:11;;;;;;;4.30;1.70;;;15.90;88.10;;;;;;5051982;28;20036;-59
2022/05/25 01:57:42;;;;;;;5.32;1.67;;;15.90;88.20;;;;;;5052719;28;20049;-60
2022/05/25 02:00:08;;;;;;;7.35;2.10;;;15.90;88.40;;;;;;5052545;28;20474;-62
2022/05/25 02:05:20;;;;;;;5.90;1.90;;;15.80;88.70;;;;;;5052363;28;20079;-59
2022/05/25 02:08:18;;;;;;;2.83;1.48;;;15.80;88.70;;;;;;5038047;28;20033;-59
2022/05/25 02:11:08;;;;;;;5.03;1.83;;;15.80;88.70;;;;;;5055819;28;20028;-59
2022/05/25 02:14:38;;;;;;;4.85;1.45;;;15.90;88.60;;;;;;5056294;28;20493;-62
2022/05/25 02:17:10;;;;;;;5.80;1.95;;;15.80;88.70;;;;;;5011663;28;20082;-59
2022/05/25 02:19:56;;;;;;;4.32;1.30;;;15.70;88.80;;;;;;5056127;28;20104;-59
2022/05/25 02:22:40;;;;;;;3.45;1.67;;;15.80;88.90;;;;;;5056400;28;20470;-59
2022/05/25 02:25:37;;;;;;;4.88;1.60;;;15.70;89.00;;;;;;5055552;28;20107;-59
2022/05/25 02:28:37;;;;;;;7.25;1.90;;;15.70;89.30;;;;;;5056145;28;20028;-61
2022/05/25 02:31:05;;;;;;;8.40;2.03;;;15.70;89.30;;;;;;5038572;28;20070;-59
2022/05/25 02:33:38;;;;;;;7.25;1.65;;;15.70;89.80;;;;;;5056073;28;20079;-59
2022/05/25 02:36:08;;;;;;;5.05;1.52;;;15.60;89.50;;;;;;5055906;28;20449;-71
2022/05/25 02:38:37;;;;;;;6.38;2.33;;;15.70;89.50;;;;;;5055436;28;20103;-67
2022/05/25 02:41:08;;;;;;;4.40;1.42;;;15.70;89.20;;;;;;5055855;28;20537;-66
2022/05/25 02:43:38;;;;;;;8.07;1.65;;;15.70;89.00;;;;;;5055862;28;20029;-70
2022/05/25 02:46:06;;;;;;;6.22;1.60;;;15.60;89.40;;;;;;5055746;28;20029;-70
2022/05/25 02:48:35;;;;;;;6.03;1.48;;;15.50;89.60;;;;;;5055893;28;20087;-70
2022/05/25 02:51:01;;;;;;;3.90;1.63;;;15.50;89.60;;;;;;5055473;28;20024;-69
2022/05/25 02:53:27;;;;;;;6.25;1.90;;;15.70;89.60;;;;;;5055368;28;20100;-72
2022/05/25 02:55:52;;;;;;;4.57;1.50;;;15.50;89.70;;;;;;5055572;28;20033;-72
2022/05/25 02:58:18;;;;;;;4.60;1.60;;;15.50;89.90;;;;;;5055546;28;20017;-68
2022/05/25 03:00:44;;;;;;;7.43;2.13;;;15.50;90.00;;;;;;5055355;28;20521;-71
2022/05/25 03:03:12;;;;;;;6.93;1.70;;;15.50;89.90;;;;;;5055608;28;20025;-71
2022/05/25 03:05:38;;;;;;;6.75;1.88;;;15.40;90.10;;;;;;5055490;28;20029;-71
2022/05/25 03:08:05;;;;;;;3.83;1.33;;;15.50;90.00;;;;;;5054994;28;20338;-65
2022/05/25 03:10:31;;;;;;;5.22;1.63;;;15.50;90.00;;;;;;5055446;28;20032;-71
2022/05/25 03:12:57;;;;;;;4.25;1.70;;;15.40;90.00;;;;;;5055075;28;20025;-64
2022/05/25 03:15:22;;;;;;;4.07;1.80;;;15.40;90.10;;;;;;5055311;28;20419;-71
2022/05/25 03:17:48;;;;;;;5.50;1.83;;;15.40;90.00;;;;;;5054973;28;20021;-72
2022/05/25 03:20:15;;;;;;;5.20;1.88;;;15.30;90.10;;;;;;5054857;28;20035;-72
2022/05/25 03:22:44;;;;;;;12.00;2.75;;;15.30;90.20;;;;;;5054847;28;20025;-65
2022/05/25 03:25:10;;;;;;;6.63;2.38;;;15.30;90.00;;;;;;5055304;28;20109;-62
2022/05/25 03:27:36;;;;;;;5.80;2.00;;;15.30;90.00;;;;;;5055157;28;20056;-60
2022/05/25 03:30:04;;;;;;;5.82;1.70;;;15.30;89.80;;;;;;5055206;28;20052;-70
2022/05/25 03:32:30;;;;;;;7.75;2.38;;;15.30;89.80;;;;;;5054795;28;20025;-68
2022/05/25 03:34:55;;;;;;;7.93;1.80;;;15.30;90.00;;;;;;5054746;28;20032;-69
2022/05/25 03:37:21;;;;;;;5.85;2.15;;;15.30;89.90;;;;;;5054713;28;20416;-69
2022/05/25 03:39:46;;;;;;;6.38;1.73;;;15.20;89.80;;;;;;5054780;28;20076;-62
2022/05/25 03:42:15;;;;;;;6.47;2.22;;;15.20;90.00;;;;;;5054707;28;20070;-68
2022/05/25 03:44:40;;;;;;;7.35;1.92;;;15.20;90.00;;;;;;5054723;28;20428;-69
2022/05/25 03:47:06;;;;;;;5.88;2.17;;;15.20;90.10;;;;;;5054576;28;20013;-69
2022/05/25 03:49:32;;;;;;;6.30;2.15;;;15.10;90.10;;;;;;5054452;28;20378;-69
2022/05/25 03:51:57;;;;;;;7.03;2.20;;;15.10;90.20;;;;;;5054239;28;20031;-69
2022/05/25 03:54:23;;;;;;;6.22;1.90;;;15.10;90.20;;;;;;5054549;28;20056;-68
2022/05/25 03:56:48;;;;;;;5.75;2.03;;;15.10;90.20;;;;;;5054673;28;20017;-69
2022/05/25 03:59:14;;;;;;;7.10;1.90;;;15.00;90.30;;;;;;5054401;28;20478;-66
2022/05/25 04:01:40;;;;;;;4.72;2.08;;;15.10;90.40;;;;;;5054383;28;20017;-69
2022/05/25 04:04:06;;;;;;;6.88;2.58;;;15.10;90.30;;;;;;5054019;28;20394;-69
2022/05/25 04:06:32;;;;;;;6.63;2.38;;;15.10;90.40;;;;;;5054072;28;20478;-69
2022/05/25 04:08:58;;;;;;;6.18;1.88;;;15.10;90.50;;;;;;5054239;28;20025;-69
2022/05/25 04:11:24;;;;;;;4.18;2.03;;;15.10;90.50;;;;;;5053825;28;20036;-68
2022/05/25 04:13:49;;;;;;;6.60;2.28;;;15.00;90.50;;;;;;5061861;28;20045;-69
2022/05/25 04:16:15;;;;;;;4.53;2.67;;;15.10;90.50;;;;;;5073450;28;20028;-69
2022/05/25 04:18:40;;;;;;;5.43;2.58;;;15.00;90.50;;;;;;5073845;28;20060;-69
2022/05/25 04:21:06;;;;;;;8.10;2.30;;;15.10;90.60;;;;;;5073169;28;20362;-69
2022/05/25 04:23:31;;;;;;;8.60;1.98;;;15.00;90.60;;;;;;5073465;28;20522;-65
2022/05/25 04:25:57;;;;;;;7.60;2.35;;;15.00;90.70;;;;;;5073763;28;20035;-67
2022/05/25 04:28:23;;;;;;;4.80;1.50;;;15.00;90.70;;;;;;5073127;28;20031;-67
2022/05/25 04:30:49;;;;;;;5.90;2.30;;;15.10;90.30;;;;;;5072831;28;20089;-69
2022/05/25 04:33:15;;;;;;;4.53;2.10;;;15.10;90.60;;;;;;5073542;28;20070;-69
2022/05/25 04:35:41;;;;;;;6.00;2.22;;;15.10;90.70;;;;;;5073361;28;20035;-69
2022/05/25 04:38:07;;;;;;;4.28;1.90;;;15.10;90.60;;;;;;5072542;28;20025;-70
2022/05/25 04:40:42;;;;;;;6.15;1.90;;;15.10;90.50;;;;;;5071186;28;20028;-69
2022/05/25 04:43:12;;;;;;;5.72;1.83;;;15.10;90.50;;;;;;5064805;28;20055;-69
2022/05/25 04:45:40;;;;;;;8.73;3.00;;;15.10;90.70;;;;;;5073130;28;20453;-68
2022/05/25 04:48:06;;;;;;;5.88;2.42;;;15.10;90.60;;;;;;5072781;28;20039;-62
2022/05/25 04:50:35;;;;;;;5.45;2.53;;;15.20;90.70;;;;;;5073146;28;20054;-58
2022/05/25 04:53:02;;;;;;;4.78;2.42;;;15.20;90.70;;;;;;5072955;28;20052;-59
2022/05/25 04:58:24;;;;;;;5.57;2.15;;;15.20;90.70;;;;;;5073579;28;20098;-59
2022/05/25 05:00:50;;;;;;;13.13;3.05;;;15.20;90.90;;;;;;5068100;28;20492;-61
2022/05/25 05:03:17;;;;;;;6.15;2.40;;;15.20;91.10;;;;;;5069818;28;20029;-58
2022/05/25 05:05:43;;;;;;;5.10;2.00;;;15.20;91.10;;;;;;5072390;28;20044;-60
2022/05/25 05:08:09;;;;;;;5.70;2.42;;;15.20;91.30;;;;;;5070294;28;20469;-60
2022/05/25 05:10:35;;;;;;;6.70;2.25;;;15.30;91.20;;;;;;5052301;28;20037;-59
2022/05/25 05:13:04;;;;;;;5.65;2.03;;;15.30;91.30;;;;;;5071563;28;20107;-59
2022/05/25 05:15:51;;;;;;;8.05;2.47;;;15.20;91.30;;;;;;5068599;28;20135;-60
2022/05/25 05:18:18;;;;;;;6.85;1.00;;;15.40;91.30;;;;;;5070023;28;20021;-66
2022/05/25 05:20:44;;;;;;;5.53;2.65;;;15.50;91.60;;;;;;5072021;28;20029;-60
2022/05/25 05:23:09;;;;;;;6.70;2.25;;;15.60;91.20;;;;;;5075425;28;20028;-61
2022/05/25 05:25:35;;;;;;;7.10;2.20;;;15.50;91.20;;;;;;5071818;28;20028;-68
2022/05/25 05:28:08;;;;;;;9.70;2.85;;;15.50;91.30;;;;;;5072470;28;20028;-61
2022/05/25 05:30:35;;;;;;;7.25;2.75;;;15.40;91.30;;;;;;5070906;28;20119;-67
2022/05/25 05:33:00;;;;;;;7.05;3.10;;;15.40;91.30;;;;;;5071656;28;20021;-67
2022/05/25 05:35:28;;;;;;;9.70;3.13;;;15.50;91.30;;;;;;5072022;28;20044;-71
2022/05/25 05:37:55;;;;;;;7.65;3.00;;;15.50;91.60;;;;;;5076485;28;20047;-70
2022/05/25 05:40:21;;;;;;;8.38;3.15;;;15.50;91.70;;;;;;5075943;28;20050;-70
2022/05/25 05:42:49;;;;;;;7.53;2.33;;;15.60;91.90;;;;;;5075215;28;20028;-72
2022/05/25 05:45:18;;;;;;;4.38;1.95;;;15.70;92.00;;;;;;5075297;28;20029;-69
2022/05/25 05:47:50;;;;;;;4.20;2.17;;;15.80;92.10;;;;;;5074537;28;20451;-72
2022/05/25 05:50:17;;;;;;;3.40;1.33;;;15.90;92.20;;;;;;5065214;28;20023;-71
2022/05/25 05:52:43;;;;;;;6.53;2.47;;;15.90;91.90;;;;;;5076329;28;20031;-72
2022/05/25 05:55:09;;;;;;;7.07;2.20;;;16.00;92.00;;;;;;5075589;28;20052;-69
2022/05/25 05:57:36;;;;;;;8.60;2.42;;;16.10;91.80;;;;;;5076022;28;20469;-69
2022/05/25 06:00:05;;;;;;;4.32;1.48;;;16.20;91.70;;;;;;5074222;28;20024;-73
2022/05/25 06:02:30;;;;;;;3.58;0.98;;;16.30;91.50;;;;;;5074284;28;20377;-67
2022/05/25 06:04:56;;;;;;;3.08;0.60;;;16.30;91.40;;;;;;5075267;28;20013;-72
2022/05/25 06:07:22;;;;;;;8.93;2.08;;;16.40;91.20;;;;;;5062595;28;20582;-72
2022/05/25 06:09:47;;;;;;;5.45;1.83;;;16.50;91.30;;;;;;5078837;28;20361;-62
2022/05/25 06:12:14;;;;;;;4.68;1.55;;;16.60;91.10;;;;;;5077439;28;20495;-70
2022/05/25 06:14:40;;;;;;;9.32;0.90;;;16.60;91.10;;;;;;5074974;28;20460;-67
2022/05/25 06:19:49;;;;;;;4.20;1.60;;;16.80;90.70;;;;;;5083695;28;20034;-72
2022/05/25 06:22:18;;;;;;;4.28;1.33;;;16.80;90.60;;;;;;5083548;28;20377;-71
2022/05/25 06:24:46;;;;;;;5.85;1.92;;;17.00;90.40;;;;;;5056709;28;20432;-72
2022/05/25 06:27:13;;;;;;;5.18;1.15;;;17.00;90.30;;;;;;5075788;28;20468;-66
2022/05/25 06:29:41;;;;;;;4.32;1.83;;;17.10;90.10;;;;;;5075785;28;20429;-72
2022/05/25 06:32:08;;;;;;;6.38;1.45;;;17.10;90.00;;;;;;5074924;28;20024;-69
2022/05/25 06:34:34;;;;;;;5.10;1.70;;;17.20;89.70;;;;;;5075839;28;20032;-65
2022/05/25 06:37:00;;;;;;;9.73;2.08;;;17.30;89.80;;;;;;5075768;28;20025;-71
2022/05/25 06:39:27;;;;;;;4.53;1.58;;;17.40;89.70;;;;;;5075685;28;20100;-69
2022/05/25 06:41:53;;;;;;;8.35;1.20;;;17.50;89.90;;;;;;5076154;28;20016;-61
2022/05/25 06:44:20;;;;;;;10.00;1.83;;;17.50;89.10;;;;;;5076431;28;20147;-64
2022/05/25 06:46:46;;;;;;;4.32;0.93;;;17.60;89.00;;;;;;5074454;28;20070;-63
2022/05/25 06:49:11;;;;;;;7.10;1.40;;;17.70;88.80;;;;;;5075723;28;20028;-71
2022/05/25 06:51:37;;;;;;;4.75;1.77;;;17.70;89.10;;;;;;5059168;28;20021;-66
2022/05/25 06:54:04;;;;;;;5.10;1.08;;;17.80;88.90;;;;;;5074330;28;20041;-68
2022/05/25 06:56:29;;;;;;;5.95;1.00;;;17.90;88.20;;;;;;5076484;28;20024;-67
2022/05/25 06:58:57;;;;;;;6.35;1.25;;;17.90;87.90;;;;;;5073194;28;20095;-71
2022/05/25 07:01:24;;;;;;;6.63;1.30;;;18.00;87.70;;;;;;5074052;28;20025;-59
2022/05/25 07:03:53;;;;;;;4.30;1.35;;;18.00;87.40;;;;;;5074556;28;20031;-68
2022/05/25 07:06:21;;;;;;;5.68;1.48;;;18.10;87.70;;;;;;5073899;28;20083;-72
2022/05/25 07:08:47;;;;;;;6.65;1.10;;;18.10;87.10;;;;;;5074503;28;20055;-71
2022/05/25 07:11:13;;;;;;;3.20;0.90;;;18.20;86.80;;;;;;5071253;28;20064;-62
2022/05/25 07:13:39;;;;;;;5.78;1.42;;;18.30;86.60;;;;;;5074717;28;20082;-70
2022/05/25 07:16:07;;;;;;;4.40;1.00;;;18.30;86.80;;;;;;5073865;28;20032;-69
2022/05/25 07:18:33;;;;;;;6.90;1.30;;;18.40;86.40;;;;;;5072979;28;20043;-68
2022/05/25 07:21:06;;;;;;;3.83;1.02;;;18.40;86.10;;;;;;5073395;28;20391;-71
2022/05/25 07:23:36;;;;;;;3.17;1.17;;;18.40;86.00;;;;;;5073714;28;20438;-70
2022/05/25 07:26:02;;;;;;;6.18;1.30;;;18.50;86.00;;;;;;5074031;28;20024;-72
2022/05/25 07:28:28;;;;;;;8.05;1.20;;;18.50;85.80;;;;;;5074038;28;20389;-70
2022/05/25 07:30:59;;;;;;;5.30;0.93;;;18.60;86.10;;;;;;5074356;28;20446;-72
2022/05/25 07:33:26;;;;;;;5.40;1.40;;;18.60;85.90;;;;;;5073639;28;20484;-67
2022/05/25 07:35:52;;;;;;;4.18;1.13;;;18.70;85.60;;;;;;5074147;28;20031;-72
2022/05/25 07:38:18;;;;;;;4.90;1.17;;;18.70;85.70;;;;;;5074313;28;20028;-70
2022/05/25 07:40:45;;;;;;;4.65;1.10;;;18.80;85.50;;;;;;5076552;28;20025;-68
2022/05/25 07:43:18;;;;;;;4.95;0.98;;;18.80;85.00;;;;;;5076368;28;20033;-73
2022/05/25 07:45:47;;;;;;;4.53;1.10;;;18.90;85.00;;;;;;5076478;28;20469;-70
2022/05/25 07:48:13;;;;;;;2.05;0.52;;;18.90;84.60;;;;;;5075288;28;20059;-69
2022/05/25 07:50:40;;;;;;;3.15;0.90;;;18.90;84.40;;;;;;5075407;28;20024;-72
2022/05/25 07:53:55;;;;;;;4.95;0.65;;;19.00;84.20;;;;;;5074987;28;20028;-66
2022/05/25 07:55:53;;;;;;;2.85;0.88;;;19.00;84.00;;;;;;5074130;28;20040;-70
2022/05/25 07:58:19;;;;;;;3.38;0.63;;;19.10;83.90;;;;;;5073261;28;20031;-71
2022/05/25 08:00:45;;;;;;;5.40;0.63;;;19.10;83.60;;;;;;5073981;28;20099;-70
2022/05/25 08:05:59;;;;;;;2.88;0.85;;;19.20;83.20;;;;;;5072820;28;20116;-71
2022/05/25 08:08:25;;;;;;;3.03;0.70;;;19.20;83.00;;;;;;5073390;28;20032;-64
2022/05/25 08:10:55;;;;;;;3.22;0.73;;;19.30;82.90;;;;;;5072526;28;20469;-71
2022/05/25 08:13:22;;;;;;;4.63;0.77;;;19.30;82.60;;;;;;5072841;28;20495;-72
2022/05/25 08:15:48;;;;;;;2.75;0.68;;;19.40;82.40;;;;;;5072927;28;20366;-61
2022/05/25 08:18:16;;;;;;;2.90;0.50;;;19.40;82.10;;;;;;5073142;28;20476;-62
2022/05/25 08:20:43;;;;;;;3.85;0.70;;;19.40;82.10;;;;;;5073154;28;20063;-64
2022/05/25 08:23:11;;;;;;;1.90;0.85;;;19.50;82.00;;;;;;5072944;28;20024;-65
2022/05/25 08:25:37;;;;;;;2.88;1.08;;;19.50;81.70;;;;;;5072932;28;20498;-64
2022/05/25 08:28:03;;;;;;;2.58;0.55;;;19.50;81.60;;;;;;5072451;28;20457;-62
2022/05/25 08:30:30;;;;;;;8.38;0.70;;;19.60;81.40;;;;;;5072353;28;20130;-61
2022/05/25 08:32:56;;;;;;;3.42;0.75;;;19.60;81.60;;;;;;5071640;28;20044;-63
2022/05/25 08:35:22;;;;;;;2.35;0.50;;;19.60;81.30;;;;;;5072880;28;20389;-65
2022/05/25 08:37:47;;;;;;;2.95;0.50;;;19.70;81.20;;;;;;5072169;28;20024;-69
2022/05/25 08:40:20;;;;;;;2.35;0.40;;;19.70;80.90;;;;;;5073229;28;20343;-63
2022/05/25 08:42:59;;;;;;;2.63;0.60;;;19.80;80.70;;;;;;5072552;28;20021;-68
2022/05/25 08:45:32;;;;;;;2.08;0.50;;;19.80;80.40;;;;;;5072438;28;20028;-61
2022/05/25 08:48:01;;;;;;;1.52;0.68;;;19.80;79.60;;;;;;5072396;28;20106;-64
2022/05/25 08:50:29;;;;;;;2.20;0.60;;;19.90;79.80;;;;;;5072954;28;20158;-62
2022/05/25 08:52:58;;;;;;;3.10;0.55;;;19.90;79.60;;;;;;5072429;28;20024;-64
2022/05/25 08:55:44;;;;;;;3.65;0.82;;;19.90;79.80;;;;;;5073976;28;20029;-61
2022/05/25 08:58:12;;;;;;;2.85;0.70;;;20.00;79.20;;;;;;5072352;28;20047;-59
2022/05/25 09:00:39;;;;;;;2.10;0.60;;;20.00;79.30;;;;;;5071637;28;20024;-62
2022/05/25 09:03:31;;;;;;;2.45;0.60;;;20.00;79.20;;;;;;5071771;28;20097;-69
2022/05/25 09:06:11;;;;;;;3.90;0.93;;;20.10;79.10;;;;;;5072049;28;20024;-60
2022/05/25 09:08:57;;;;;;;4.88;0.60;;;20.10;78.70;;;;;;5071991;28;20024;-60
2022/05/25 09:11:38;;;;;;;1.67;0.40;;;20.10;79.10;;;;;;5053573;28;20082;-63
2022/05/25 09:14:20;;;;;;;2.28;0.65;;;20.20;78.60;;;;;;5071974;28;20025;-70
2022/05/25 09:16:49;;;;;;;2.63;0.68;;;20.20;78.50;;;;;;5071820;28;20481;-63
2022/05/25 09:19:24;;;;;;;5.35;0.88;;;20.20;78.20;;;;;;5072360;28;20040;-67
2022/05/25 09:22:00;;;;;;;1.45;0.45;;;20.20;77.90;;;;;;5072044;28;20020;-65
2022/05/25 09:24:27;;;;;;;3.00;0.40;;;20.30;77.90;;;;;;5072109;28;20043;-66
2022/05/25 09:26:53;;;;;;;2.30;0.50;;;20.30;77.70;;;;;;5071538;28;20028;-60
2022/05/25 09:29:21;;;;;;;3.65;0.40;;;20.30;77.30;;;;;;5079263;28;20043;-65
2022/05/25 09:31:51;;;;;;;4.85;0.70;;;20.30;76.80;;;;;;5092673;28;20024;-70
2022/05/25 09:34:39;;;;;;;1.85;0.40;;;20.40;77.20;;;;;;5075844;28;20033;-69
2022/05/25 09:37:34;;;;;;;3.13;0.52;;;20.40;77.00;;;;;;5071102;28;20025;-69
2022/05/25 09:40:34;;;;;;;3.22;0.43;;;20.40;76.80;;;;;;5070499;28;20135;-61
2022/05/25 09:43:03;;;;;;;2.60;0.47;;;20.50;76.50;;;;;;5060241;28;20037;-66
2022/05/25 09:45:54;;;;;;;2.38;0.43;;;20.50;76.30;;;;;;5071662;28;20024;-67
2022/05/25 09:48:22;;;;;;;2.65;0.43;;;20.50;76.20;;;;;;5063466;28;20039;-66
2022/05/25 09:50:54;;;;;;;1.58;0.45;;;20.50;76.10;;;;;;5072151;28;20496;-66
2022/05/25 09:53:24;;;;;;;1.05;0.30;;;20.50;75.80;;;;;;5071677;28;20466;-69
2022/05/25 09:56:04;;;;;;;2.75;0.40;;;20.60;75.70;;;;;;5071600;28;20131;-70
2022/05/25 09:58:52;;;;;;;1.52;0.40;;;20.60;75.50;;;;;;5071995;28;20112;-65
2022/05/25 10:01:27;;;;;;;2.05;0.38;;;20.60;75.20;;;;;;5071033;28;20020;-71
2022/05/25 10:03:54;;;;;;;1.83;0.60;;;20.60;75.20;;;;;;5072141;28;20107;-64
2022/05/25 10:06:28;;;;;;;1.65;0.20;;;20.60;75.10;;;;;;5072336;28;20021;-66
2022/05/25 10:09:27;;;;;;;2.75;0.35;;;20.60;74.50;;;;;;5051756;28;20119;-67
2022/05/25 10:11:56;;;;;;;1.27;0.30;;;20.70;74.80;;;;;;5069891;28;20055;-60
2022/05/25 10:14:38;;;;;;;4.28;0.68;;;20.70;74.30;;;;;;5072641;28;20037;-61
2022/05/25 10:17:15;;;;;;;1.98;0.45;;;20.60;73.70;;;;;;5077487;28;20031;-71
2022/05/25 10:19:51;;;;;;;1.52;0.38;;;20.70;74.30;;;;;;5071933;28;20035;-71
2022/05/25 10:22:44;;;;;;;2.20;0.30;;;20.70;74.10;;;;;;5080809;28;20073;-62
2022/05/25 10:25:22;;;;;;;2.67;0.32;;;20.70;74.10;;;;;;5068300;28;20035;-59
2022/05/25 10:27:48;;;;;;;1.55;0.30;;;20.70;73.80;;;;;;5091146;28;20090;-68
2022/05/25 10:36:47;;;;;;;1.87;0.30;;;20.80;73.30;;;;;;5087653;28;20488;-65
2022/05/25 10:39:39;;;;;;;2.37;0.40;;;20.80;73.30;;;;;;5079860;28;20048;-70
2022/05/25 10:42:17;;;;;;;2.80;0.50;;;20.80;73.00;;;;;;5073914;28;20132;-67
2022/05/25 10:45:12;;;;;;;0.98;0.22;;;20.80;72.90;;;;;;5068627;28;20497;-69
2022/05/25 10:47:38;;;;;;;1.45;0.20;;;20.80;73.00;;;;;;5055056;28;20066;-59
2022/05/25 10:50:11;;;;;;;1.65;0.40;;;20.80;72.80;;;;;;5054482;28;20029;-67
2022/05/25 10:52:43;;;;;;;1.58;0.43;;;20.80;72.70;;;;;;5054115;28;20025;-68
2022/05/25 10:55:08;;;;;;;2.10;0.47;;;20.90;72.50;;;;;;5054659;28;20060;-64
2022/05/25 10:57:58;;;;;;;1.17;0.20;;;20.90;72.50;;;;;;5054674;28;20052;-68
2022/05/25 11:00:44;;;;;;;2.28;0.30;;;20.90;72.50;;;;;;5054277;28;20079;-66
2022/05/25 11:03:47;;;;;;;1.52;0.20;;;20.90;72.40;;;;;;5054849;28;20049;-62
2022/05/25 11:06:44;;;;;;;1.45;0.17;;;20.90;72.30;;;;;;5054576;28;20025;-59
2022/05/25 11:09:24;;;;;;;3.65;0.20;;;20.90;72.20;;;;;;5053880;28;20112;-64
2022/05/25 11:11:50;;;;;;;1.98;0.32;;;20.90;71.90;;;;;;5054251;28;20078;-65
2022/05/25 11:15:00;;;;;;;1.67;0.50;;;20.90;72.20;;;;;;5066757;28;20045;-67
2022/05/25 11:17:59;;;;;;;2.92;0.32;;;20.90;72.10;;;;;;5058425;28;20397;-70
2022/05/25 11:20:42;;;;;;;0.60;0.10;;;20.90;72.10;;;;;;5073738;28;20032;-63
2022/05/25 11:23:22;;;;;;;1.35;0.22;;;20.90;71.90;;;;;;5073126;28;20111;-68
2022/05/25 11:25:48;;;;;;;1.48;0.30;;;21.00;71.60;;;;;;5072748;28;20039;-70
2022/05/25 11:28:21;;;;;;;1.92;0.38;;;21.00;71.70;;;;;;5072711;28;20016;-59
2022/05/25 11:31:09;;;;;;;3.47;0.30;;;21.00;70.80;;;;;;5073091;28;20082;-68
2022/05/25 11:33:38;;;;;;;0.82;0.10;;;21.00;71.70;;;;;;5074025;28;20442;-65
2022/05/25 11:36:22;;;;;;;3.03;0.30;;;21.00;71.00;;;;;;5074073;28;20036;-68
2022/05/25 11:39:19;;;;;;;1.83;0.40;;;21.00;70.50;;;;;;5073723;28;20024;-64
2022/05/25 11:41:55;;;;;;;1.88;0.32;;;21.10;70.30;;;;;;5070777;28;20095;-70
2022/05/25 11:44:56;;;;;;;2.30;0.47;;;21.00;70.10;;;;;;5068725;28;20481;-69
2022/05/25 11:47:47;;;;;;;3.45;0.45;;;21.00;70.00;;;;;;5069985;28;20365;-69
2022/05/25 11:50:42;;;;;;;3.10;0.45;;;21.00;70.10;;;;;;5069884;28;20033;-66
2022/05/25 11:53:42;;;;;;;2.75;0.50;;;21.00;69.90;;;;;;5073512;28;20032;-63
2022/05/25 11:56:30;;;;;;;4.55;0.77;;;21.00;69.80;;;;;;5058456;28;20048;-59
2022/05/25 11:58:55;;;;;;;6.55;1.02;;;21.00;69.90;;;;;;5070809;28;20033;-67
2022/05/25 12:01:42;;;;;;;2.65;0.35;;;21.00;69.50;;;;;;5071499;28;20044;-69
2022/05/25 12:04:46;;;;;;;4.05;0.52;;;21.10;69.70;;;;;;5071340;28;20031;-65
2022/05/25 12:07:31;;;;;;;8.32;0.50;;;21.10;69.30;;;;;;5070047;28;20102;-67
2022/05/25 12:10:35;;;;;;;3.20;0.47;;;21.10;69.10;;;;;;5064521;28;20073;-66
2022/05/25 12:13:07;;;;;;;5.40;0.63;;;21.10;69.50;;;;;;5009158;28;20038;-69
2022/05/25 12:15:59;;;;;;;3.58;0.47;;;21.10;68.50;;;;;;5009650;28;20042;-71
2022/05/25 12:18:37;;;;;;;;;;;21.10;68.90;;;;;;5050328;28;20032;-62
2022/05/25 12:21:15;;;;;;;4.38;0.50;;;21.10;68.90;;;;;;5072077;28;19905;-70
2022/05/25 12:23:49;;;;;;;3.85;0.68;;;21.10;68.90;;;;;;5069237;28;20037;-72
2022/05/25 12:26:22;;;;;;;3.10;0.57;;;21.10;68.40;;;;;;5080535;28;20067;-70
2022/05/25 12:28:51;;;;;;;4.07;0.40;;;21.10;68.50;;;;;;5070815;28;20044;-68
2022/05/25 12:31:27;;;;;;;4.88;0.40;;;21.20;68.50;;;;;;5065828;28;20016;-67
2022/05/25 12:33:54;;;;;;;2.30;0.43;;;21.20;68.10;;;;;;5075205;28;20100;-60
2022/05/25 12:36:20;;;;;;;5.70;0.65;;;21.20;68.10;;;;;;5092112;28;20028;-69
2022/05/25 12:38:46;;;;;;;3.15;0.55;;;21.20;67.90;;;;;;5071493;28;20028;-72
2022/05/25 12:41:35;;;;;;;2.08;0.50;;;21.20;67.40;;;;;;5065043;28;20103;-71
2022/05/25 12:44:00;;;;;;;2.97;0.30;;;21.20;67.40;;;;;;5072064;28;20124;-74
2022/05/25 12:49:35;;;;;;;1.50;0.25;;;21.30;67.60;;;;;;5077754;28;20043;-60
2022/05/25 12:52:01;;;;;;;5.22;0.50;;;21.30;67.20;;;;;;5076793;28;20028;-61
2022/05/25 12:54:29;;;;;;;3.08;0.52;;;21.30;67.00;;;;;;5071687;28;20029;-71
2022/05/25 12:56:56;;;;;;;3.60;0.40;;;21.30;66.70;;;;;;5070886;28;20021;-63
2022/05/25 12:59:33;;;;;;;5.53;0.60;;;21.30;66.30;;;;;;5070832;28;20016;-60
2022/05/25 13:02:10;;;;;;;6.38;0.38;;;21.30;66.50;;;;;;5071809;28;20031;-70
2022/05/25 13:04:45;;;;;;;2.92;0.28;;;21.40;66.20;;;;;;5066815;28;20039;-62
2022/05/25 13:07:35;;;;;;;2.17;0.50;;;21.40;66.10;;;;;;5070938;28;20033;-64
2022/05/25 13:10:08;;;;;;;1.65;0.32;;;21.40;65.90;;;;;;5070999;28;20068;-72
2022/05/25 13:12:39;;;;;;;3.92;0.40;;;21.40;65.90;;;;;;5071823;28;20481;-69
2022/05/25 13:15:17;;;;;;;1.70;0.30;;;21.40;65.50;;;;;;5070805;28;20450;-63
2022/05/25 13:17:56;;;;;;;3.55;0.30;;;21.40;65.80;;;;;;5045240;28;20287;-72
2022/05/25 13:20:27;;;;;;;3.50;0.30;;;21.40;65.60;;;;;;5062741;28;20036;-79
2022/05/25 13:22:55;;;;;;;2.05;0.45;;;21.40;65.70;;;;;;5071733;28;20040;-71
2022/05/25 13:25:59;;;;;;;3.80;0.60;;;21.40;65.30;;;;;;5076249;28;20016;-71
2022/05/25 13:28:28;;;;;;;4.50;0.60;;;21.40;65.50;;;;;;5091847;28;20020;-71
2022/05/25 13:31:34;;;;;;;3.13;0.30;;;21.40;65.10;;;;;;5069848;28;20071;-70
2022/05/25 13:34:13;;;;;;;3.50;0.30;;;21.40;65.00;;;;;;5075726;28;20059;-67
2022/05/25 13:36:55;;;;;;;3.33;0.40;;;21.40;65.00;;;;;;5070791;28;20659;-71
2022/05/25 13:39:24;;;;;;;10.02;1.10;;;21.40;64.90;;;;;;5070915;28;20254;-65
2022/05/25 13:42:12;;;;;;;6.35;0.47;;;21.40;64.60;;;;;;5070821;28;20035;-72